createdAt,value
2019-05-20T00:00:30.436Z,999.51
2019-05-20T00:01:30.423Z,999.55
2019-05-20T00:02:30.415Z,999.52
2019-05-20T00:03:30.406Z,999.55
2019-05-20T00:04:30.389Z,999.53
2019-05-20T00:05:30.407Z,999.54
2019-05-20T00:06:30.367Z,999.57
2019-05-20T00:07:30.362Z,999.50
2019-05-20T00:08:30.348Z,999.56
2019-05-20T00:09:30.337Z,999.54
2019-05-20T00:10:30.336Z,999.54
2019-05-20T00:11:30.315Z,999.56
2019-05-20T00:12:30.302Z,999.53
2019-05-20T00:13:30.294Z,999.55
2019-05-20T00:14:30.281Z,999.62
2019-05-20T00:15:30.272Z,999.57
2019-05-20T00:16:30.261Z,999.65
2019-05-20T00:17:30.250Z,999.62
2019-05-20T00:18:30.240Z,999.64
2019-05-20T00:19:30.228Z,999.66
2019-05-20T00:20:30.213Z,999.64
2019-05-20T00:21:30.203Z,999.63
2019-05-20T00:22:30.196Z,999.61
2019-05-20T00:23:30.182Z,999.61
2019-05-20T00:24:30.176Z,999.61
2019-05-20T00:25:30.161Z,999.64
2019-05-20T00:26:30.149Z,999.55
2019-05-20T00:27:30.137Z,999.58
2019-05-20T00:28:30.137Z,999.63
2019-05-20T00:29:30.116Z,999.60
2019-05-20T00:30:30.108Z,999.60
2019-05-20T00:31:30.097Z,999.61
2019-05-20T00:32:40.596Z,999.60
2019-05-20T00:33:31.082Z,999.62
2019-05-20T00:34:35.000Z,999.65
2019-05-20T00:35:31.052Z,999.64
2019-05-20T00:36:30.044Z,999.69
2019-05-20T00:37:30.039Z,999.61
2019-05-20T00:38:30.026Z,999.63
2019-05-20T00:39:30.012Z,999.61
2019-05-20T00:40:30.029Z,999.62
2019-05-20T00:41:29.985Z,999.64
2019-05-20T00:42:29.976Z,999.72
2019-05-20T00:43:29.982Z,999.67
2019-05-20T00:44:29.950Z,999.72
2019-05-20T00:45:29.946Z,999.65
2019-05-20T00:46:29.941Z,999.67
2019-05-20T00:47:29.918Z,999.68
2019-05-20T00:48:29.909Z,999.63
2019-05-20T00:49:29.896Z,999.68
2019-05-20T00:50:29.892Z,999.64
2019-05-20T00:51:29.880Z,999.64
2019-05-20T00:52:29.865Z,999.61
2019-05-20T00:53:29.853Z,999.67
2019-05-20T00:54:29.843Z,999.65
2019-05-20T00:55:29.836Z,999.69
2019-05-20T00:56:29.822Z,999.70
2019-05-20T00:57:29.835Z,999.65
2019-05-20T00:58:29.805Z,999.72
2019-05-20T00:59:29.793Z,999.72
2019-05-20T01:00:29.780Z,999.67
2019-05-20T01:01:29.770Z,999.69
2019-05-20T01:02:29.763Z,999.67
2019-05-20T01:03:29.753Z,999.63
2019-05-20T01:04:29.753Z,999.63
2019-05-20T01:05:29.724Z,999.62
2019-05-20T01:06:29.718Z,999.61
2019-05-20T01:07:29.701Z,999.57
2019-05-20T01:08:29.692Z,999.64
2019-05-20T01:09:29.680Z,999.61
2019-05-20T01:10:29.704Z,999.65
2019-05-20T01:11:29.663Z,999.64
2019-05-20T01:12:29.647Z,999.63
2019-05-20T01:13:29.634Z,999.60
2019-05-20T01:14:29.627Z,999.58
2019-05-20T01:15:29.617Z,999.63
2019-05-20T01:16:29.603Z,999.67
2019-05-20T01:17:29.591Z,999.68
2019-05-20T01:18:29.583Z,999.62
2019-05-20T01:19:29.566Z,999.65
2019-05-20T01:20:29.558Z,999.66
2019-05-20T01:21:29.547Z,999.67
2019-05-20T01:22:29.535Z,999.55
2019-05-20T01:23:29.530Z,999.58
2019-05-20T01:24:29.566Z,999.59
2019-05-20T01:25:29.510Z,999.52
2019-05-20T01:26:29.495Z,999.54
2019-05-20T01:27:29.517Z,999.53
2019-05-20T01:28:29.472Z,999.58
2019-05-20T01:29:29.457Z,999.55
2019-05-20T01:30:29.446Z,999.57
2019-05-20T01:31:29.446Z,999.56
2019-05-20T01:32:29.439Z,999.56
2019-05-20T01:33:29.421Z,999.56
2019-05-20T01:34:29.409Z,999.53
2019-05-20T01:35:29.402Z,999.50
2019-05-20T01:36:29.391Z,999.46
2019-05-20T01:37:29.374Z,999.44
2019-05-20T01:38:29.364Z,999.49
2019-05-20T01:39:29.474Z,999.42
2019-05-20T01:40:29.339Z,999.38
2019-05-20T01:41:29.329Z,999.38
2019-05-20T01:42:29.321Z,999.35
2019-05-20T01:43:29.308Z,999.31
2019-05-20T01:44:29.299Z,999.33
2019-05-20T01:45:29.324Z,999.20
2019-05-20T01:46:29.274Z,999.25
2019-05-20T01:47:29.267Z,999.29
2019-05-20T01:48:29.259Z,999.32
2019-05-20T01:49:29.250Z,999.24
2019-05-20T01:50:29.235Z,999.30
2019-05-20T01:51:29.236Z,999.24
2019-05-20T01:52:29.216Z,999.22
2019-05-20T01:53:29.207Z,999.26
2019-05-20T01:54:29.193Z,999.29
2019-05-20T01:55:29.175Z,999.35
2019-05-20T01:56:29.168Z,999.36
2019-05-20T01:57:29.160Z,999.36
2019-05-20T01:58:29.148Z,999.37
2019-05-20T01:59:29.135Z,999.36
2019-05-20T02:00:29.124Z,999.39
2019-05-20T02:01:29.112Z,999.41
2019-05-20T02:02:29.104Z,999.45
2019-05-20T02:03:32.134Z,999.44
2019-05-20T02:04:29.082Z,999.44
2019-05-20T02:05:29.074Z,999.44
2019-05-20T02:06:29.056Z,999.45
2019-05-20T02:07:29.048Z,999.39
2019-05-20T02:08:29.040Z,999.46
2019-05-20T02:09:29.026Z,999.41
2019-05-20T02:10:29.013Z,999.41
2019-05-20T02:11:29.006Z,999.42
2019-05-20T02:12:28.995Z,999.39
2019-05-20T02:13:28.982Z,999.38
2019-05-20T02:14:28.976Z,999.36
2019-05-20T02:15:28.969Z,999.34
2019-05-20T02:16:28.949Z,999.31
2019-05-20T02:17:28.945Z,999.30
2019-05-20T02:18:28.943Z,999.36
2019-05-20T02:19:28.924Z,999.34
2019-05-20T02:20:28.910Z,999.37
2019-05-20T02:21:28.903Z,999.36
2019-05-20T02:22:28.886Z,999.28
2019-05-20T02:23:28.872Z,999.28
2019-05-20T02:24:28.860Z,999.26
2019-05-20T02:25:28.863Z,999.26
2019-05-20T02:26:28.841Z,999.22
2019-05-20T02:27:28.828Z,999.25
2019-05-20T02:28:28.824Z,999.17
2019-05-20T02:29:28.833Z,999.12
2019-05-20T02:30:28.803Z,999.09
2019-05-20T02:31:28.794Z,999.15
2019-05-20T02:32:28.796Z,999.11
2019-05-20T02:33:28.768Z,999.15
2019-05-20T02:34:28.755Z,999.12
2019-05-20T02:35:28.744Z,999.10
2019-05-20T02:36:28.740Z,999.12
2019-05-20T02:37:28.722Z,999.10
2019-05-20T02:38:28.712Z,999.07
2019-05-20T02:39:28.703Z,999.09
2019-05-20T02:40:28.688Z,999.12
2019-05-20T02:41:28.679Z,999.13
2019-05-20T02:42:28.667Z,999.08
2019-05-20T02:43:28.658Z,999.12
2019-05-20T02:44:28.648Z,999.04
2019-05-20T02:45:28.635Z,999.04
2019-05-20T02:46:28.627Z,999.09
2019-05-20T02:47:28.624Z,999.06
2019-05-20T02:48:28.602Z,999.02
2019-05-20T02:49:28.589Z,999.04
2019-05-20T02:50:28.581Z,999.05
2019-05-20T02:51:28.573Z,999.04
2019-05-20T02:52:28.559Z,999.06
2019-05-20T02:53:28.542Z,999.09
2019-05-20T02:54:28.534Z,999.07
2019-05-20T02:55:28.529Z,999.04
2019-05-20T02:56:28.522Z,999.11
2019-05-20T02:57:28.504Z,999.11
2019-05-20T02:58:28.490Z,999.16
2019-05-20T02:59:28.477Z,999.14
2019-05-20T03:00:28.470Z,999.14
2019-05-20T03:01:28.458Z,999.16
2019-05-20T03:02:28.449Z,999.15
2019-05-20T03:03:28.438Z,999.15
2019-05-20T03:04:28.428Z,999.12
2019-05-20T03:05:28.419Z,999.10
2019-05-20T03:06:28.405Z,999.15
2019-05-20T03:07:28.397Z,999.04
2019-05-20T03:08:28.388Z,999.06
2019-05-20T03:09:28.371Z,999.06
2019-05-20T03:10:28.372Z,999.09
2019-05-20T03:11:28.353Z,998.99
2019-05-20T03:12:28.346Z,999.02
2019-05-20T03:13:28.333Z,999.03
2019-05-20T03:14:28.320Z,999.07
2019-05-20T03:15:28.310Z,999.08
2019-05-20T03:16:28.298Z,999.09
2019-05-20T03:17:28.294Z,999.10
2019-05-20T03:18:28.307Z,999.07
2019-05-20T03:19:28.269Z,999.07
2019-05-20T03:20:28.253Z,999.07
2019-05-20T03:21:28.246Z,999.10
2019-05-20T03:22:28.228Z,999.06
2019-05-20T03:23:28.222Z,999.03
2019-05-20T03:24:28.209Z,999.10
2019-05-20T03:25:28.200Z,999.06
2019-05-20T03:26:28.192Z,999.08
2019-05-20T03:27:28.178Z,999.02
2019-05-20T03:28:28.164Z,999.04
2019-05-20T03:29:28.156Z,999.02
2019-05-20T03:30:28.144Z,998.99
2019-05-20T03:31:28.140Z,998.99
2019-05-20T03:32:28.125Z,999.02
2019-05-20T03:33:28.127Z,998.98
2019-05-20T03:34:45.715Z,998.95
2019-05-20T03:35:29.113Z,998.95
2019-05-20T03:36:28.079Z,998.91
2019-05-20T03:37:28.068Z,998.91
2019-05-20T03:38:28.054Z,998.93
2019-05-20T03:39:28.052Z,998.94
2019-05-20T03:40:28.042Z,998.95
2019-05-20T03:41:28.030Z,998.95
2019-05-20T03:42:28.021Z,998.94
2019-05-20T03:43:28.004Z,998.95
2019-05-20T03:44:27.988Z,998.94
2019-05-20T03:45:27.975Z,998.98
2019-05-20T03:46:27.968Z,998.98
2019-05-20T03:47:27.965Z,998.98
2019-05-20T03:48:27.949Z,999.00
2019-05-20T03:49:27.944Z,998.95
2019-05-20T03:50:27.928Z,998.98
2019-05-20T03:51:27.917Z,998.98
2019-05-20T03:52:27.903Z,998.97
2019-05-20T03:53:27.921Z,998.94
2019-05-20T03:54:27.886Z,998.94
2019-05-20T03:55:27.874Z,998.95
2019-05-20T03:56:27.861Z,998.93
2019-05-20T03:57:27.852Z,998.98
2019-05-20T03:58:27.836Z,998.95
2019-05-20T03:59:27.850Z,998.95
2019-05-20T04:00:27.825Z,998.93
2019-05-20T04:01:27.809Z,998.91
2019-05-20T04:02:27.801Z,998.91
2019-05-20T04:03:27.784Z,998.90
2019-05-20T04:04:27.775Z,998.85
2019-05-20T04:05:27.766Z,998.93
2019-05-20T04:06:27.758Z,998.91
2019-05-20T04:07:27.739Z,998.94
2019-05-20T04:08:27.729Z,998.92
2019-05-20T04:09:27.719Z,998.88
2019-05-20T04:10:27.709Z,998.95
2019-05-20T04:11:27.704Z,998.86
2019-05-20T04:12:27.684Z,998.89
2019-05-20T04:13:27.685Z,998.91
2019-05-20T04:14:27.669Z,998.91
2019-05-20T04:15:27.653Z,998.90
2019-05-20T04:16:27.648Z,998.89
2019-05-20T04:17:27.641Z,998.93
2019-05-20T04:18:27.622Z,998.98
2019-05-20T04:19:27.613Z,999.00
2019-05-20T04:20:27.599Z,998.97
2019-05-20T04:21:27.602Z,998.99
2019-05-20T04:22:27.587Z,998.98
2019-05-20T04:23:27.567Z,998.99
2019-05-20T04:24:27.556Z,998.96
2019-05-20T04:25:27.545Z,998.98
2019-05-20T04:26:27.537Z,998.99
2019-05-20T04:27:27.521Z,998.96
2019-05-20T04:28:27.514Z,998.96
2019-05-20T04:29:27.511Z,998.94
2019-05-20T04:30:27.489Z,998.94
2019-05-20T04:31:27.478Z,998.98
2019-05-20T04:32:27.468Z,999.00
2019-05-20T04:33:27.456Z,998.97
2019-05-20T04:34:27.446Z,998.95
2019-05-20T04:35:27.440Z,998.97
2019-05-20T04:36:27.429Z,998.96
2019-05-20T04:37:27.415Z,998.99
2019-05-20T04:38:27.402Z,999.01
2019-05-20T04:39:27.394Z,999.02
2019-05-20T04:40:27.377Z,999.01
2019-05-20T04:41:27.379Z,998.97
2019-05-20T04:42:27.361Z,999.01
2019-05-20T04:43:27.344Z,999.03
2019-05-20T04:44:27.337Z,999.04
2019-05-20T04:45:27.342Z,999.03
2019-05-20T04:46:27.313Z,999.11
2019-05-20T04:47:27.311Z,999.08
2019-05-20T04:48:27.296Z,999.08
2019-05-20T04:49:27.285Z,999.06
2019-05-20T04:50:27.270Z,999.03
2019-05-20T04:51:27.273Z,999.06
2019-05-20T04:52:27.264Z,999.06
2019-05-20T04:53:27.239Z,999.05
2019-05-20T04:54:27.234Z,999.11
2019-05-20T04:55:27.219Z,999.12
2019-05-20T04:56:29.322Z,999.08
2019-05-20T04:57:27.195Z,999.12
2019-05-20T04:58:27.184Z,999.11
2019-05-20T04:59:27.196Z,999.12
2019-05-20T05:00:27.171Z,999.12
2019-05-20T05:01:27.150Z,999.16
2019-05-20T05:02:27.138Z,999.12
2019-05-20T05:03:27.129Z,999.15
2019-05-20T05:04:27.123Z,999.13
2019-05-20T05:05:37.068Z,999.17
2019-05-20T05:06:28.101Z,999.20
2019-05-20T05:07:27.088Z,999.17
2019-05-20T05:08:27.079Z,999.17
2019-05-20T05:09:27.060Z,999.20
2019-05-20T05:10:27.053Z,999.25
2019-05-20T05:11:27.043Z,999.20
2019-05-20T05:12:27.038Z,999.22
2019-05-20T05:13:27.027Z,999.29
2019-05-20T05:14:27.102Z,999.19
2019-05-20T05:15:27.163Z,999.17
2019-05-20T05:16:27.069Z,999.17
2019-05-20T05:17:27.028Z,999.18
2019-05-20T05:18:27.131Z,999.17
2019-05-20T05:19:27.045Z,999.19
2019-05-20T05:20:26.942Z,999.17
2019-05-20T05:21:26.936Z,999.18
2019-05-20T05:22:26.921Z,999.18
2019-05-20T05:23:26.913Z,999.13
2019-05-20T05:24:26.898Z,999.17
2019-05-20T05:25:26.890Z,999.14
2019-05-20T05:26:26.879Z,999.14
2019-05-20T05:27:26.865Z,999.15
2019-05-20T05:28:26.859Z,999.16
2019-05-20T05:29:26.848Z,999.16
2019-05-20T05:30:26.838Z,999.13
2019-05-20T05:31:26.820Z,999.15
2019-05-20T05:32:26.817Z,999.14
2019-05-20T05:33:26.805Z,999.15
2019-05-20T05:34:26.794Z,999.19
2019-05-20T05:35:26.782Z,999.19
2019-05-20T05:36:26.770Z,999.18
2019-05-20T05:37:26.766Z,999.11
2019-05-20T05:38:26.745Z,999.14
2019-05-20T05:39:26.758Z,999.15
2019-05-20T05:40:26.724Z,999.12
2019-05-20T05:41:26.718Z,999.08
2019-05-20T05:42:26.704Z,999.06
2019-05-20T05:43:26.701Z,999.04
2019-05-20T05:44:26.691Z,999.05
2019-05-20T05:45:29.160Z,998.97
2019-05-20T05:46:26.690Z,998.99
2019-05-20T05:47:26.658Z,998.97
2019-05-20T05:48:26.643Z,999.02
2019-05-20T05:49:26.641Z,999.02
2019-05-20T05:50:26.612Z,999.02
2019-05-20T05:51:26.609Z,999.03
2019-05-20T05:52:26.598Z,999.09
2019-05-20T05:53:26.581Z,999.09
2019-05-20T05:54:26.578Z,999.07
2019-05-20T05:55:26.563Z,999.11
2019-05-20T05:56:26.548Z,999.12
2019-05-20T05:57:26.541Z,999.14
2019-05-20T05:58:26.530Z,999.07
2019-05-20T05:59:26.516Z,999.08
2019-05-20T06:00:26.795Z,999.10
2019-05-20T06:01:26.536Z,999.11
2019-05-20T06:02:26.496Z,999.15
2019-05-20T06:03:26.489Z,999.14
2019-05-20T06:04:26.467Z,999.10
2019-05-20T06:05:26.453Z,999.16
2019-05-20T06:06:26.439Z,999.18
2019-05-20T06:07:26.425Z,999.17
2019-05-20T06:08:26.418Z,999.18
2019-05-20T06:09:26.404Z,999.17
2019-05-20T06:10:26.409Z,999.17
2019-05-20T06:11:26.383Z,999.14
2019-05-20T06:12:26.379Z,999.11
2019-05-20T06:13:26.361Z,999.12
2019-05-20T06:14:26.352Z,999.09
2019-05-20T06:15:26.341Z,999.07
2019-05-20T06:16:35.895Z,999.02
2019-05-20T06:17:27.328Z,999.02
2019-05-20T06:18:26.331Z,998.98
2019-05-20T06:19:26.318Z,998.99
2019-05-20T06:20:26.287Z,998.99
2019-05-20T06:21:26.278Z,998.91
2019-05-20T06:22:26.268Z,998.88
2019-05-20T06:23:26.255Z,998.98
2019-05-20T06:24:26.242Z,998.89
2019-05-20T06:25:26.233Z,998.89
2019-05-20T06:26:26.223Z,998.84
2019-05-20T06:27:26.210Z,998.85
2019-05-20T06:28:26.209Z,998.84
2019-05-20T06:29:26.198Z,998.86
2019-05-20T06:30:26.178Z,998.86
2019-05-20T06:31:26.168Z,998.88
2019-05-20T06:32:26.170Z,998.85
2019-05-20T06:33:26.147Z,998.89
2019-05-20T06:34:26.137Z,998.90
2019-05-20T06:35:26.129Z,998.88
2019-05-20T06:36:27.299Z,998.88
2019-05-20T06:37:26.102Z,998.88
2019-05-20T06:38:26.091Z,998.93
2019-05-20T06:39:26.084Z,998.95
2019-05-20T06:40:26.152Z,998.95
2019-05-20T06:41:26.057Z,998.94
2019-05-20T06:42:26.069Z,998.93
2019-05-20T06:43:26.062Z,998.95
2019-05-20T06:44:26.029Z,998.94
2019-05-20T06:45:26.016Z,998.86
2019-05-20T06:46:26.006Z,998.91
2019-05-20T06:47:26.028Z,998.93
2019-05-20T06:48:25.982Z,998.82
2019-05-20T06:49:25.973Z,998.89
2019-05-20T06:50:29.494Z,998.90
2019-05-20T06:51:25.951Z,998.90
2019-05-20T06:52:35.480Z,998.97
2019-05-20T06:53:26.968Z,998.99
2019-05-20T06:54:25.916Z,998.99
2019-05-20T06:55:25.909Z,998.94
2019-05-20T06:56:25.901Z,998.97
2019-05-20T06:57:25.937Z,998.96
2019-05-20T06:58:25.963Z,998.92
2019-05-20T06:59:25.861Z,998.88
2019-05-20T07:00:25.885Z,998.89
2019-05-20T07:01:25.857Z,998.91
2019-05-20T07:02:25.893Z,998.80
2019-05-20T07:03:25.848Z,998.83
2019-05-20T07:04:25.813Z,998.82
2019-05-20T07:05:25.795Z,998.89
2019-05-20T07:06:25.789Z,998.80
2019-05-20T07:07:25.777Z,998.78
2019-05-20T07:08:25.841Z,998.77
2019-05-20T07:09:25.764Z,998.82
2019-05-20T07:10:25.751Z,998.79
2019-05-20T07:11:25.738Z,998.77
2019-05-20T07:12:40.203Z,998.78
2019-05-20T07:13:26.709Z,998.79
2019-05-20T07:14:25.705Z,998.77
2019-05-20T07:15:25.690Z,998.79
2019-05-20T07:16:25.684Z,998.74
2019-05-20T07:17:25.670Z,998.73
2019-05-20T07:18:27.553Z,998.79
2019-05-20T07:19:25.705Z,998.75
2019-05-20T07:20:25.704Z,998.77
2019-05-20T07:21:25.663Z,998.70
2019-05-20T07:22:25.620Z,998.69
2019-05-20T07:23:25.634Z,998.69
2019-05-20T07:24:25.600Z,998.71
2019-05-20T07:25:25.636Z,998.70
2019-05-20T07:26:25.570Z,998.76
2019-05-20T07:27:25.562Z,998.78
2019-05-20T07:28:25.547Z,998.79
2019-05-20T07:29:25.591Z,998.75
2019-05-20T07:30:25.534Z,998.76
2019-05-20T07:31:25.517Z,998.78
2019-05-20T07:32:25.505Z,998.77
2019-05-20T07:33:25.496Z,998.74
2019-05-20T07:34:25.645Z,998.80
2019-05-20T07:35:30.652Z,998.78
2019-05-20T07:36:26.494Z,998.81
2019-05-20T07:37:25.505Z,998.77
2019-05-20T07:38:25.440Z,998.78
2019-05-20T07:39:25.461Z,998.77
2019-05-20T07:40:25.427Z,998.82
2019-05-20T07:41:25.414Z,998.82
2019-05-20T07:42:25.403Z,998.88
2019-05-20T07:43:25.400Z,998.87
2019-05-20T07:44:25.398Z,998.94
2019-05-20T07:45:25.377Z,998.95
2019-05-20T07:46:25.364Z,998.95
2019-05-20T07:47:25.366Z,999.01
2019-05-20T07:48:25.368Z,999.03
2019-05-20T07:49:25.921Z,998.94
2019-05-20T07:50:25.318Z,998.85
2019-05-20T07:51:25.311Z,998.80
2019-05-20T07:52:25.293Z,998.84
2019-05-20T07:53:25.281Z,998.79
2019-05-20T07:54:25.275Z,998.92
2019-05-20T07:55:25.269Z,998.94
2019-05-20T07:56:25.266Z,998.96
2019-05-20T07:57:25.379Z,998.96
2019-05-20T07:58:25.234Z,999.00
2019-05-20T07:59:25.218Z,999.03
2019-05-20T08:00:25.209Z,999.02
2019-05-20T08:01:25.196Z,999.02
2019-05-20T08:02:25.198Z,999.02
2019-05-20T08:03:25.186Z,999.01
2019-05-20T08:04:25.234Z,999.04
2019-05-20T08:05:25.155Z,999.07
2019-05-20T08:06:25.225Z,999.03
2019-05-20T08:07:30.176Z,999.08
2019-05-20T08:08:26.145Z,999.09
2019-05-20T08:09:25.204Z,999.06
2019-05-20T08:10:25.102Z,999.12
2019-05-20T08:11:25.091Z,999.08
2019-05-20T08:12:25.081Z,999.11
2019-05-20T08:13:25.079Z,999.08
2019-05-20T08:14:25.062Z,999.02
2019-05-20T08:15:25.059Z,999.06
2019-05-20T08:16:25.045Z,999.04
2019-05-20T08:17:25.033Z,999.10
2019-05-20T08:18:25.025Z,999.10
2019-05-20T08:19:25.017Z,999.09
2019-05-20T08:20:25.007Z,999.08
2019-05-20T08:21:24.998Z,999.09
2019-05-20T08:22:24.985Z,999.13
2019-05-20T08:23:24.978Z,999.07
2019-05-20T08:24:24.968Z,999.09
2019-05-20T08:25:24.963Z,999.12
2019-05-20T08:26:24.970Z,999.17
2019-05-20T08:27:24.944Z,999.13
2019-05-20T08:28:24.925Z,999.15
2019-05-20T08:29:24.917Z,999.18
2019-05-20T08:30:24.909Z,999.20
2019-05-20T08:31:24.912Z,999.18
2019-05-20T08:32:25.069Z,999.24
2019-05-20T08:33:24.876Z,999.25
2019-05-20T08:34:24.864Z,999.31
2019-05-20T08:35:24.857Z,999.24
2019-05-20T08:36:24.862Z,999.25
2019-05-20T08:37:24.834Z,999.27
2019-05-20T08:38:24.825Z,999.28
2019-05-20T08:39:24.812Z,999.29
2019-05-20T08:40:24.815Z,999.27
2019-05-20T08:41:24.817Z,999.24
2019-05-20T08:42:24.783Z,999.20
2019-05-20T08:43:24.773Z,999.18
2019-05-20T08:44:24.762Z,999.04
2019-05-20T08:45:24.752Z,999.05
2019-05-20T08:46:24.763Z,999.21
2019-05-20T08:47:24.734Z,999.21
2019-05-20T08:48:24.732Z,999.22
2019-05-20T08:49:24.715Z,999.19
2019-05-20T08:50:24.703Z,999.21
2019-05-20T08:51:24.698Z,999.20
2019-05-20T08:52:24.686Z,999.19
2019-05-20T08:53:24.682Z,999.24
2019-05-20T08:54:24.700Z,999.22
2019-05-20T08:55:24.671Z,999.21
2019-05-20T08:56:24.650Z,999.18
2019-05-20T08:57:24.636Z,999.19
2019-05-20T08:58:24.688Z,999.22
2019-05-20T08:59:24.617Z,999.18
2019-05-20T09:00:25.093Z,999.24
2019-05-20T09:01:24.606Z,999.23
2019-05-20T09:02:24.624Z,999.23
2019-05-20T09:03:24.583Z,999.24
2019-05-20T09:04:24.575Z,999.27
2019-05-20T09:05:27.837Z,999.30
2019-05-20T09:06:24.555Z,999.25
2019-05-20T09:07:24.552Z,999.20
2019-05-20T09:08:24.551Z,999.16
2019-05-20T09:09:24.646Z,999.09
2019-05-20T09:10:24.517Z,999.13
2019-05-20T09:11:24.505Z,999.12
2019-05-20T09:12:24.602Z,999.21
2019-05-20T09:13:24.490Z,999.13
2019-05-20T09:14:24.486Z,999.17
2019-05-20T09:15:24.469Z,999.21
2019-05-20T09:16:24.462Z,999.24
2019-05-20T09:17:24.458Z,999.26
2019-05-20T09:18:24.441Z,999.23
2019-05-20T09:19:24.438Z,999.19
2019-05-20T09:20:24.653Z,999.22
2019-05-20T09:21:24.413Z,999.21
2019-05-20T09:22:24.402Z,999.24
2019-05-20T09:23:24.421Z,999.18
2019-05-20T09:24:24.391Z,999.23
2019-05-20T09:25:24.377Z,999.34
2019-05-20T09:26:24.375Z,999.08
2019-05-20T09:27:24.397Z,998.98
2019-05-20T09:28:24.348Z,998.88
2019-05-20T09:29:24.339Z,998.91
2019-05-20T09:30:24.329Z,998.97
2019-05-20T09:31:24.318Z,998.82
2019-05-20T09:32:24.308Z,998.91
2019-05-20T09:33:24.313Z,999.18
2019-05-20T09:34:24.343Z,999.13
2019-05-20T09:35:24.280Z,998.70
2019-05-20T09:36:26.048Z,998.99
2019-05-20T09:37:24.260Z,999.04
2019-05-20T09:38:24.255Z,999.01
2019-05-20T09:39:24.240Z,998.92
2019-05-20T09:40:24.389Z,998.89
2019-05-20T09:41:24.224Z,998.95
2019-05-20T09:42:24.210Z,998.89
2019-05-20T09:43:24.200Z,999.03
2019-05-20T09:44:24.192Z,999.00
2019-05-20T09:45:24.190Z,999.01
2019-05-20T09:46:24.199Z,998.98
2019-05-20T09:47:24.164Z,998.88
2019-05-20T09:48:25.250Z,999.04
2019-05-20T09:49:24.213Z,998.93
2019-05-20T09:50:24.133Z,998.97
2019-05-20T09:51:24.128Z,999.09
2019-05-20T09:52:24.163Z,998.83
2019-05-20T09:53:24.125Z,998.81
2019-05-20T09:54:24.095Z,998.74
2019-05-20T09:55:24.113Z,998.96
2019-05-20T09:56:24.073Z,999.00
2019-05-20T09:57:24.063Z,998.99
2019-05-20T09:58:24.056Z,999.07
2019-05-20T09:59:24.067Z,998.94
2019-05-20T10:00:24.034Z,999.05
2019-05-20T10:01:24.029Z,998.98
2019-05-20T10:02:33.735Z,998.89
2019-05-20T10:03:25.004Z,999.01
2019-05-20T10:04:24.003Z,998.58
2019-05-20T10:05:23.991Z,999.02
2019-05-20T10:06:23.982Z,998.98
2019-05-20T10:07:23.977Z,998.97
2019-05-20T10:08:37.418Z,998.95
2019-05-20T10:09:24.949Z,999.01
2019-05-20T10:10:23.945Z,998.83
2019-05-20T10:11:23.931Z,998.96
2019-05-20T10:12:23.927Z,998.71
2019-05-20T10:13:23.913Z,998.82
2019-05-20T10:14:23.906Z,998.80
2019-05-20T10:15:23.900Z,998.90
2019-05-20T10:16:23.888Z,998.54
2019-05-20T10:17:23.880Z,998.39
2019-05-20T10:18:36.716Z,998.43
2019-05-20T10:19:24.853Z,998.67
2019-05-20T10:20:23.856Z,998.68
2019-05-20T10:21:23.833Z,998.74
2019-05-20T10:22:23.827Z,998.48
2019-05-20T10:23:23.815Z,998.36
2019-05-20T10:24:23.805Z,998.44
2019-05-20T10:25:23.793Z,998.56
2019-05-20T10:26:23.789Z,998.48
2019-05-20T10:27:23.774Z,998.75
2019-05-20T10:28:23.763Z,998.86
2019-05-20T10:29:23.755Z,998.79
2019-05-20T10:30:23.748Z,998.81
2019-05-20T10:31:23.755Z,998.78
2019-05-20T10:32:23.727Z,998.79
2019-05-20T10:33:23.714Z,998.73
2019-05-20T10:34:23.706Z,998.31
2019-05-20T10:35:23.693Z,998.63
2019-05-20T10:36:23.702Z,998.48
2019-05-20T10:37:23.673Z,998.52
2019-05-20T10:38:23.695Z,998.43
2019-05-20T10:39:23.655Z,998.51
2019-05-20T10:40:23.642Z,998.63
2019-05-20T10:41:23.687Z,998.71
2019-05-20T10:42:23.625Z,998.72
2019-05-20T10:43:23.610Z,998.79
2019-05-20T10:44:23.603Z,998.49
2019-05-20T10:45:23.615Z,998.41
2019-05-20T10:46:23.596Z,998.48
2019-05-20T10:47:23.568Z,998.42
2019-05-20T10:48:23.560Z,998.40
2019-05-20T10:49:23.551Z,998.39
2019-05-20T10:50:23.542Z,998.36
2019-05-20T10:51:23.531Z,998.27
2019-05-20T10:52:23.526Z,998.23
2019-05-20T10:53:23.510Z,998.19
2019-05-20T10:54:23.502Z,998.19
2019-05-20T10:55:23.572Z,998.22
2019-05-20T10:56:23.480Z,998.12
2019-05-20T10:57:23.469Z,998.09
2019-05-20T10:58:23.462Z,998.17
2019-05-20T10:59:23.447Z,998.12
2019-05-20T11:00:23.445Z,998.15
2019-05-20T11:01:23.435Z,998.20
2019-05-20T11:02:23.419Z,998.17
2019-05-20T11:03:23.410Z,998.13
2019-05-20T11:04:23.403Z,998.12
2019-05-20T11:05:23.424Z,998.18
2019-05-20T11:06:23.376Z,998.16
2019-05-20T11:07:23.366Z,998.15
2019-05-20T11:08:23.353Z,998.18
2019-05-20T11:09:23.344Z,998.11
2019-05-20T11:10:23.332Z,998.14
2019-05-20T11:11:23.321Z,998.23
2019-05-20T11:12:23.353Z,998.24
2019-05-20T11:13:23.305Z,998.22
2019-05-20T11:14:23.336Z,998.18
2019-05-20T11:15:23.281Z,998.21
2019-05-20T11:16:23.269Z,998.15
2019-05-20T11:17:23.258Z,998.11
2019-05-20T11:18:23.254Z,998.10
2019-05-20T11:19:23.238Z,998.13
2019-05-20T11:20:23.226Z,998.12
2019-05-20T11:21:23.217Z,998.09
2019-05-20T11:22:23.205Z,998.14
2019-05-20T11:23:23.196Z,998.15
2019-05-20T11:24:23.182Z,998.10
2019-05-20T11:25:23.184Z,998.17
2019-05-20T11:26:23.163Z,998.08
2019-05-20T11:27:23.153Z,998.11
2019-05-20T11:28:23.139Z,998.11
2019-05-20T11:29:23.131Z,998.11
2019-05-20T11:30:23.120Z,998.07
2019-05-20T11:31:23.113Z,998.06
2019-05-20T11:32:23.126Z,998.01
2019-05-20T11:33:23.098Z,998.05
2019-05-20T11:34:23.084Z,998.08
2019-05-20T11:35:23.067Z,998.03
2019-05-20T11:36:23.057Z,998.05
2019-05-20T11:37:23.048Z,998.06
2019-05-20T11:38:23.031Z,998.08
2019-05-20T11:39:33.402Z,998.10
2019-05-20T11:40:24.012Z,998.11
2019-05-20T11:41:51.310Z,998.06
2019-05-20T11:42:23.992Z,998.15
2019-05-20T11:43:22.981Z,998.10
2019-05-20T11:44:22.967Z,998.05
2019-05-20T11:45:22.956Z,998.02
2019-05-20T11:46:22.946Z,998.04
2019-05-20T11:47:22.945Z,998.06
2019-05-20T11:48:22.925Z,998.03
2019-05-20T11:49:22.916Z,998.04
2019-05-20T11:50:22.905Z,998.04
2019-05-20T11:51:22.893Z,998.00
2019-05-20T11:52:22.884Z,998.01
2019-05-20T11:53:22.871Z,997.97
2019-05-20T11:54:22.866Z,997.93
2019-05-20T11:55:22.864Z,997.89
2019-05-20T11:56:22.845Z,997.89
2019-05-20T11:57:22.844Z,997.88
2019-05-20T11:58:22.819Z,997.89
2019-05-20T11:59:22.809Z,997.89
2019-05-20T12:00:22.797Z,997.86
2019-05-20T12:01:22.785Z,997.92
2019-05-20T12:02:22.784Z,997.98
2019-05-20T12:03:22.770Z,997.90
2019-05-20T12:04:22.754Z,997.92
2019-05-20T12:05:22.820Z,997.92
2019-05-20T12:06:22.734Z,997.89
2019-05-20T12:07:22.723Z,997.89
2019-05-20T12:08:22.711Z,997.89
2019-05-20T12:09:22.703Z,997.93
2019-05-20T12:10:22.689Z,997.87
2019-05-20T12:11:22.681Z,997.87
2019-05-20T12:12:22.670Z,997.84
2019-05-20T12:13:22.659Z,997.79
2019-05-20T12:14:22.646Z,997.82
2019-05-20T12:15:22.639Z,997.81
2019-05-20T12:16:22.625Z,997.81
2019-05-20T12:17:22.630Z,997.80
2019-05-20T12:18:22.606Z,997.78
2019-05-20T12:19:22.601Z,997.82
2019-05-20T12:20:22.580Z,997.75
2019-05-20T12:21:22.568Z,997.67
2019-05-20T12:22:22.561Z,997.70
2019-05-20T12:23:22.547Z,997.63
2019-05-20T12:24:22.536Z,997.68
2019-05-20T12:25:22.526Z,997.67
2019-05-20T12:26:22.931Z,997.53
2019-05-20T12:27:22.502Z,997.53
2019-05-20T12:28:22.495Z,997.50